sensor_id;sensor_type;location;lat;lon;timestamp;temperature;humidity
14370;DHT22;7268;50.792;0.252;2023-05-13T00:01:33;10.80;96.80
14370;DHT22;7268;50.792;0.252;2023-05-13T00:04:04;10.70;96.40
14370;DHT22;7268;50.792;0.252;2023-05-13T00:06:33;10.80;96.40
14370;DHT22;7268;50.792;0.252;2023-05-13T00:09:03;10.80;96.30
14370;DHT22;7268;50.792;0.252;2023-05-13T00:11:29;10.80;96.30
14370;DHT22;7268;50.792;0.252;2023-05-13T00:13:56;10.80;96.40
14370;DHT22;7268;50.792;0.252;2023-05-13T00:16:23;10.80;96.40
14370;DHT22;7268;50.792;0.252;2023-05-13T00:18:54;10.80;96.40
14370;DHT22;7268;50.792;0.252;2023-05-13T00:21:21;10.80;96.40
14370;DHT22;7268;50.792;0.252;2023-05-13T00:23:49;10.80;96.20
14370;DHT22;7268;50.792;0.252;2023-05-13T00:26:16;10.80;96.20
14370;DHT22;7268;50.792;0.252;2023-05-13T00:28:43;10.80;96.10
14370;DHT22;7268;50.792;0.252;2023-05-13T00:31:10;10.70;96.20
14370;DHT22;7268;50.792;0.252;2023-05-13T00:33:37;10.70;96.30
14370;DHT22;7268;50.792;0.252;2023-05-13T00:36:04;10.70;96.20
14370;DHT22;7268;50.792;0.252;2023-05-13T00:38:32;10.70;96.20
14370;DHT22;7268;50.792;0.252;2023-05-13T00:40:59;10.70;96.20
14370;DHT22;7268;50.792;0.252;2023-05-13T00:43:26;10.70;96.20
14370;DHT22;7268;50.792;0.252;2023-05-13T00:45:52;10.70;96.20
14370;DHT22;7268;50.792;0.252;2023-05-13T00:48:20;10.60;96.30
14370;DHT22;7268;50.792;0.252;2023-05-13T00:50:47;10.60;96.20
14370;DHT22;7268;50.792;0.252;2023-05-13T00:53:15;10.70;96.20
14370;DHT22;7268;50.792;0.252;2023-05-13T00:55:43;10.70;96.30
14370;DHT22;7268;50.792;0.252;2023-05-13T00:58:11;10.70;96.30
14370;DHT22;7268;50.792;0.252;2023-05-13T01:00:56;10.70;96.30
14370;DHT22;7268;50.792;0.252;2023-05-13T01:03:37;10.60;96.20
14370;DHT22;7268;50.792;0.252;2023-05-13T01:06:17;10.70;96.30
14370;DHT22;7268;50.792;0.252;2023-05-13T01:08:50;10.60;96.20
14370;DHT22;7268;50.792;0.252;2023-05-13T01:11:28;10.60;96.30
14370;DHT22;7268;50.792;0.252;2023-05-13T01:14:02;10.60;96.30
14370;DHT22;7268;50.792;0.252;2023-05-13T01:16:39;10.60;96.30
14370;DHT22;7268;50.792;0.252;2023-05-13T01:19:34;10.60;96.20
14370;DHT22;7268;50.792;0.252;2023-05-13T01:22:07;10.60;96.40
14370;DHT22;7268;50.792;0.252;2023-05-13T01:24:34;10.60;96.30
14370;DHT22;7268;50.792;0.252;2023-05-13T01:27:02;10.60;96.40
14370;DHT22;7268;50.792;0.252;2023-05-13T01:29:29;10.60;96.20
14370;DHT22;7268;50.792;0.252;2023-05-13T01:31:56;10.50;96.20
14370;DHT22;7268;50.792;0.252;2023-05-13T01:34:25;10.50;96.20
14370;DHT22;7268;50.792;0.252;2023-05-13T01:36:52;10.50;96.30
14370;DHT22;7268;50.792;0.252;2023-05-13T01:39:20;10.50;96.40
14370;DHT22;7268;50.792;0.252;2023-05-13T01:41:48;10.50;96.70
14370;DHT22;7268;50.792;0.252;2023-05-13T01:44:15;10.50;96.30
14370;DHT22;7268;50.792;0.252;2023-05-13T01:46:42;10.50;96.20
14370;DHT22;7268;50.792;0.252;2023-05-13T01:49:09;10.40;96.20
14370;DHT22;7268;50.792;0.252;2023-05-13T01:51:36;10.40;96.30
14370;DHT22;7268;50.792;0.252;2023-05-13T01:54:04;10.40;96.30
14370;DHT22;7268;50.792;0.252;2023-05-13T01:56:31;10.40;96.40
14370;DHT22;7268;50.792;0.252;2023-05-13T01:58:58;10.40;96.30
14370;DHT22;7268;50.792;0.252;2023-05-13T02:01:24;10.50;96.30
14370;DHT22;7268;50.792;0.252;2023-05-13T02:03:51;10.30;96.30
14370;DHT22;7268;50.792;0.252;2023-05-13T02:06:21;10.30;96.20
14370;DHT22;7268;50.792;0.252;2023-05-13T02:08:48;10.30;96.30
14370;DHT22;7268;50.792;0.252;2023-05-13T02:11:15;10.40;96.30
14370;DHT22;7268;50.792;0.252;2023-05-13T02:13:42;10.20;96.30
14370;DHT22;7268;50.792;0.252;2023-05-13T02:16:13;10.30;96.40
14370;DHT22;7268;50.792;0.252;2023-05-13T02:18:40;10.30;96.40
14370;DHT22;7268;50.792;0.252;2023-05-13T02:21:07;10.30;96.40
14370;DHT22;7268;50.792;0.252;2023-05-13T02:23:36;10.30;96.40
14370;DHT22;7268;50.792;0.252;2023-05-13T02:26:03;10.20;96.40
14370;DHT22;7268;50.792;0.252;2023-05-13T02:28:30;10.20;96.40
14370;DHT22;7268;50.792;0.252;2023-05-13T02:30:59;10.20;96.40
14370;DHT22;7268;50.792;0.252;2023-05-13T02:33:26;10.20;96.30
14370;DHT22;7268;50.792;0.252;2023-05-13T02:35:53;10.20;96.30
14370;DHT22;7268;50.792;0.252;2023-05-13T02:38:20;10.30;96.30
14370;DHT22;7268;50.792;0.252;2023-05-13T02:40:47;10.20;96.30
14370;DHT22;7268;50.792;0.252;2023-05-13T02:43:14;10.20;96.20
14370;DHT22;7268;50.792;0.252;2023-05-13T02:45:41;10.20;96.30
14370;DHT22;7268;50.792;0.252;2023-05-13T02:48:07;10.10;96.30
14370;DHT22;7268;50.792;0.252;2023-05-13T02:50:36;10.20;96.20
14370;DHT22;7268;50.792;0.252;2023-05-13T02:53:03;10.10;96.30
14370;DHT22;7268;50.792;0.252;2023-05-13T02:55:30;10.10;96.30
14370;DHT22;7268;50.792;0.252;2023-05-13T02:57:57;10.20;96.30
14370;DHT22;7268;50.792;0.252;2023-05-13T03:00:24;10.20;96.20
14370;DHT22;7268;50.792;0.252;2023-05-13T03:02:51;10.10;96.10
14370;DHT22;7268;50.792;0.252;2023-05-13T03:05:18;10.10;96.20
14370;DHT22;7268;50.792;0.252;2023-05-13T03:07:45;10.00;96.20
14370;DHT22;7268;50.792;0.252;2023-05-13T03:10:12;10.10;96.10
14370;DHT22;7268;50.792;0.252;2023-05-13T03:12:39;10.10;96.10
14370;DHT22;7268;50.792;0.252;2023-05-13T03:15:06;10.00;96.20
14370;DHT22;7268;50.792;0.252;2023-05-13T03:17:33;10.10;96.30
14370;DHT22;7268;50.792;0.252;2023-05-13T03:20:00;10.00;96.10
14370;DHT22;7268;50.792;0.252;2023-05-13T03:22:29;10.00;96.20
14370;DHT22;7268;50.792;0.252;2023-05-13T03:24:56;10.00;96.20
14370;DHT22;7268;50.792;0.252;2023-05-13T03:27:24;9.90;96.20
14370;DHT22;7268;50.792;0.252;2023-05-13T03:29:51;9.90;96.20
14370;DHT22;7268;50.792;0.252;2023-05-13T03:32:17;9.90;96.20
14370;DHT22;7268;50.792;0.252;2023-05-13T03:34:47;9.90;96.20
14370;DHT22;7268;50.792;0.252;2023-05-13T03:37:13;9.90;96.10
14370;DHT22;7268;50.792;0.252;2023-05-13T03:39:40;9.90;96.10
14370;DHT22;7268;50.792;0.252;2023-05-13T03:42:07;10.00;96.00
14370;DHT22;7268;50.792;0.252;2023-05-13T03:44:34;9.90;96.10
14370;DHT22;7268;50.792;0.252;2023-05-13T03:47:01;9.90;96.00
14370;DHT22;7268;50.792;0.252;2023-05-13T03:49:28;9.90;96.10
14370;DHT22;7268;50.792;0.252;2023-05-13T03:51:55;9.80;95.90
14370;DHT22;7268;50.792;0.252;2023-05-13T03:54:22;9.80;95.90
14370;DHT22;7268;50.792;0.252;2023-05-13T03:56:49;9.70;95.90
14370;DHT22;7268;50.792;0.252;2023-05-13T03:59:16;9.70;96.00
14370;DHT22;7268;50.792;0.252;2023-05-13T04:01:43;9.70;96.10
14370;DHT22;7268;50.792;0.252;2023-05-13T04:04:10;9.70;95.90
14370;DHT22;7268;50.792;0.252;2023-05-13T04:06:37;9.70;95.90
14370;DHT22;7268;50.792;0.252;2023-05-13T04:09:04;9.70;96.00
14370;DHT22;7268;50.792;0.252;2023-05-13T04:11:33;9.70;96.00
14370;DHT22;7268;50.792;0.252;2023-05-13T04:14:01;9.70;95.90
14370;DHT22;7268;50.792;0.252;2023-05-13T04:16:27;9.70;95.90
14370;DHT22;7268;50.792;0.252;2023-05-13T04:18:55;9.70;95.90
14370;DHT22;7268;50.792;0.252;2023-05-13T04:21:21;9.70;96.00
14370;DHT22;7268;50.792;0.252;2023-05-13T04:23:48;9.80;96.00
14370;DHT22;7268;50.792;0.252;2023-05-13T04:26:15;9.70;96.10
14370;DHT22;7268;50.792;0.252;2023-05-13T04:28:42;9.70;96.10
14370;DHT22;7268;50.792;0.252;2023-05-13T04:31:09;9.80;96.10
14370;DHT22;7268;50.792;0.252;2023-05-13T04:33:37;9.80;96.00
14370;DHT22;7268;50.792;0.252;2023-05-13T04:36:04;9.80;96.10
14370;DHT22;7268;50.792;0.252;2023-05-13T04:38:31;9.80;96.20
14370;DHT22;7268;50.792;0.252;2023-05-13T04:40:58;9.90;96.10
14370;DHT22;7268;50.792;0.252;2023-05-13T04:43:25;9.90;96.00
14370;DHT22;7268;50.792;0.252;2023-05-13T04:45:52;9.80;95.90
14370;DHT22;7268;50.792;0.252;2023-05-13T04:48:19;10.00;96.10
14370;DHT22;7268;50.792;0.252;2023-05-13T04:50:46;10.00;95.90
14370;DHT22;7268;50.792;0.252;2023-05-13T04:53:17;10.00;95.70
14370;DHT22;7268;50.792;0.252;2023-05-13T04:55:46;10.00;95.70
14370;DHT22;7268;50.792;0.252;2023-05-13T04:58:13;10.10;95.70
14370;DHT22;7268;50.792;0.252;2023-05-13T05:00:42;10.10;95.50
14370;DHT22;7268;50.792;0.252;2023-05-13T05:03:09;10.20;95.60
14370;DHT22;7268;50.792;0.252;2023-05-13T05:05:38;10.20;95.60
14370;DHT22;7268;50.792;0.252;2023-05-13T05:08:05;10.10;95.30
14370;DHT22;7268;50.792;0.252;2023-05-13T05:10:35;10.20;95.40
14370;DHT22;7268;50.792;0.252;2023-05-13T05:13:05;10.20;95.50
14370;DHT22;7268;50.792;0.252;2023-05-13T05:15:34;10.40;95.50
14370;DHT22;7268;50.792;0.252;2023-05-13T05:18:01;10.40;95.80
14370;DHT22;7268;50.792;0.252;2023-05-13T05:20:28;10.50;95.30
14370;DHT22;7268;50.792;0.252;2023-05-13T05:22:58;10.70;94.70
14370;DHT22;7268;50.792;0.252;2023-05-13T05:25:25;10.60;94.50
14370;DHT22;7268;50.792;0.252;2023-05-13T05:27:52;10.80;94.50
14370;DHT22;7268;50.792;0.252;2023-05-13T05:30:21;10.80;93.90
14370;DHT22;7268;50.792;0.252;2023-05-13T05:32:48;10.70;94.10
14370;DHT22;7268;50.792;0.252;2023-05-13T05:35:16;10.70;94.00
14370;DHT22;7268;50.792;0.252;2023-05-13T05:37:45;10.80;94.10
14370;DHT22;7268;50.792;0.252;2023-05-13T05:40:12;10.90;94.40
14370;DHT22;7268;50.792;0.252;2023-05-13T05:42:39;11.00;93.80
14370;DHT22;7268;50.792;0.252;2023-05-13T05:45:06;10.90;93.70
14370;DHT22;7268;50.792;0.252;2023-05-13T05:47:33;11.00;93.80
14370;DHT22;7268;50.792;0.252;2023-05-13T05:50:03;11.00;93.60
14370;DHT22;7268;50.792;0.252;2023-05-13T05:52:30;11.00;93.60
14370;DHT22;7268;50.792;0.252;2023-05-13T05:54:57;11.00;93.60
14370;DHT22;7268;50.792;0.252;2023-05-13T05:57:29;11.00;93.80
14370;DHT22;7268;50.792;0.252;2023-05-13T05:59:56;11.00;93.50
14370;DHT22;7268;50.792;0.252;2023-05-13T06:02:29;10.90;93.80
14370;DHT22;7268;50.792;0.252;2023-05-13T06:04:56;10.90;93.80
14370;DHT22;7268;50.792;0.252;2023-05-13T06:07:22;11.00;93.80
14370;DHT22;7268;50.792;0.252;2023-05-13T06:09:49;11.10;93.80
14370;DHT22;7268;50.792;0.252;2023-05-13T06:12:19;11.10;93.60
14370;DHT22;7268;50.792;0.252;2023-05-13T06:14:48;11.20;93.70
14370;DHT22;7268;50.792;0.252;2023-05-13T06:17:15;11.20;93.50
14370;DHT22;7268;50.792;0.252;2023-05-13T06:19:42;11.30;93.80
14370;DHT22;7268;50.792;0.252;2023-05-13T06:22:10;11.50;93.30
14370;DHT22;7268;50.792;0.252;2023-05-13T06:24:40;11.50;93.00
14370;DHT22;7268;50.792;0.252;2023-05-13T06:27:10;11.70;92.70
14370;DHT22;7268;50.792;0.252;2023-05-13T06:29:40;11.80;92.60
14370;DHT22;7268;50.792;0.252;2023-05-13T06:32:07;11.60;92.30
14370;DHT22;7268;50.792;0.252;2023-05-13T06:34:34;11.70;92.40
14370;DHT22;7268;50.792;0.252;2023-05-13T06:37:03;12.00;92.70
14370;DHT22;7268;50.792;0.252;2023-05-13T06:39:30;12.30;92.40
14370;DHT22;7268;50.792;0.252;2023-05-13T06:41:57;12.70;90.90
14370;DHT22;7268;50.792;0.252;2023-05-13T06:44:26;14.10;90.80
14370;DHT22;7268;50.792;0.252;2023-05-13T06:46:52;14.90;81.50
14370;DHT22;7268;50.792;0.252;2023-05-13T06:49:19;14.60;82.30
14370;DHT22;7268;50.792;0.252;2023-05-13T06:51:46;14.30;82.40
14370;DHT22;7268;50.792;0.252;2023-05-13T06:54:13;14.00;84.50
14370;DHT22;7268;50.792;0.252;2023-05-13T06:56:41;14.00;84.10
14370;DHT22;7268;50.792;0.252;2023-05-13T06:59:08;13.80;85.00
14370;DHT22;7268;50.792;0.252;2023-05-13T07:01:35;13.50;85.40
14370;DHT22;7268;50.792;0.252;2023-05-13T07:04:02;14.10;85.30
14370;DHT22;7268;50.792;0.252;2023-05-13T07:06:29;15.00;80.70
14370;DHT22;7268;50.792;0.252;2023-05-13T07:08:56;16.10;78.70
14370;DHT22;7268;50.792;0.252;2023-05-13T07:11:23;16.40;73.00
14370;DHT22;7268;50.792;0.252;2023-05-13T07:13:50;17.20;72.60
14370;DHT22;7268;50.792;0.252;2023-05-13T07:16:17;17.60;69.60
14370;DHT22;7268;50.792;0.252;2023-05-13T07:18:43;18.00;69.10
14370;DHT22;7268;50.792;0.252;2023-05-13T07:21:11;18.80;64.70
14370;DHT22;7268;50.792;0.252;2023-05-13T07:23:38;18.90;65.50
14370;DHT22;7268;50.792;0.252;2023-05-13T07:26:05;19.20;63.90
14370;DHT22;7268;50.792;0.252;2023-05-13T07:28:32;19.50;62.30
14370;DHT22;7268;50.792;0.252;2023-05-13T07:30:59;19.60;62.60
14370;DHT22;7268;50.792;0.252;2023-05-13T07:33:28;20.00;60.70
14370;DHT22;7268;50.792;0.252;2023-05-13T07:35:55;19.80;59.50
14370;DHT22;7268;50.792;0.252;2023-05-13T07:38:22;20.80;59.70
14370;DHT22;7268;50.792;0.252;2023-05-13T07:40:49;21.30;56.30
14370;DHT22;7268;50.792;0.252;2023-05-13T07:43:16;20.70;56.90
14370;DHT22;7268;50.792;0.252;2023-05-13T07:45:50;20.60;58.60
14370;DHT22;7268;50.792;0.252;2023-05-13T07:48:17;21.30;57.60
14370;DHT22;7268;50.792;0.252;2023-05-13T07:50:44;21.40;56.20
14370;DHT22;7268;50.792;0.252;2023-05-13T07:53:11;21.00;56.00
14370;DHT22;7268;50.792;0.252;2023-05-13T07:55:38;21.10;56.80
14370;DHT22;7268;50.792;0.252;2023-05-13T07:58:05;22.00;55.80
14370;DHT22;7268;50.792;0.252;2023-05-13T08:00:32;21.80;54.70
14370;DHT22;7268;50.792;0.252;2023-05-13T08:02:59;21.90;55.40
14370;DHT22;7268;50.792;0.252;2023-05-13T08:05:26;22.50;54.20
14370;DHT22;7268;50.792;0.252;2023-05-13T08:07:53;22.60;54.80
14370;DHT22;7268;50.792;0.252;2023-05-13T08:10:20;23.20;53.30
14370;DHT22;7268;50.792;0.252;2023-05-13T08:12:46;23.30;52.40
14370;DHT22;7268;50.792;0.252;2023-05-13T08:15:18;23.10;52.20
14370;DHT22;7268;50.792;0.252;2023-05-13T08:17:45;23.30;52.10
14370;DHT22;7268;50.792;0.252;2023-05-13T08:20:12;23.70;51.50
14370;DHT22;7268;50.792;0.252;2023-05-13T08:22:40;23.10;51.80
14370;DHT22;7268;50.792;0.252;2023-05-13T08:25:09;23.90;51.70
14370;DHT22;7268;50.792;0.252;2023-05-13T08:27:38;24.50;49.60
14370;DHT22;7268;50.792;0.252;2023-05-13T08:30:06;23.80;51.70
14370;DHT22;7268;50.792;0.252;2023-05-13T08:32:33;23.10;53.20
14370;DHT22;7268;50.792;0.252;2023-05-13T08:35:00;23.70;50.80
14370;DHT22;7268;50.792;0.252;2023-05-13T08:37:27;23.70;51.20
14370;DHT22;7268;50.792;0.252;2023-05-13T08:39:53;23.50;51.10
14370;DHT22;7268;50.792;0.252;2023-05-13T08:42:22;23.00;51.90
14370;DHT22;7268;50.792;0.252;2023-05-13T08:44:51;22.60;51.60
14370;DHT22;7268;50.792;0.252;2023-05-13T08:50:13;23.30;52.20
14370;DHT22;7268;50.792;0.252;2023-05-13T08:52:41;24.00;51.10
14370;DHT22;7268;50.792;0.252;2023-05-13T08:55:09;23.20;51.40
14370;DHT22;7268;50.792;0.252;2023-05-13T08:57:36;23.60;51.60
14370;DHT22;7268;50.792;0.252;2023-05-13T09:00:04;23.30;52.10
14370;DHT22;7268;50.792;0.252;2023-05-13T09:02:31;24.10;51.60
14370;DHT22;7268;50.792;0.252;2023-05-13T09:05:03;23.40;50.10
14370;DHT22;7268;50.792;0.252;2023-05-13T09:07:32;23.00;52.20
14370;DHT22;7268;50.792;0.252;2023-05-13T09:09:59;22.40;53.20
14370;DHT22;7268;50.792;0.252;2023-05-13T09:12:48;23.90;52.50
14370;DHT22;7268;50.792;0.252;2023-05-13T09:15:17;24.30;49.60
14370;DHT22;7268;50.792;0.252;2023-05-13T09:17:48;24.70;49.00
14370;DHT22;7268;50.792;0.252;2023-05-13T09:20:17;24.90;49.20
14370;DHT22;7268;50.792;0.252;2023-05-13T09:22:59;25.00;47.50
14370;DHT22;7268;50.792;0.252;2023-05-13T09:25:27;26.10;47.20
14370;DHT22;7268;50.792;0.252;2023-05-13T09:28:02;26.20;46.50
14370;DHT22;7268;50.792;0.252;2023-05-13T09:30:33;25.80;47.00
14370;DHT22;7268;50.792;0.252;2023-05-13T09:33:08;26.30;46.70
14370;DHT22;7268;50.792;0.252;2023-05-13T09:35:42;27.10;44.60
14370;DHT22;7268;50.792;0.252;2023-05-13T09:40:41;26.50;45.30
14370;DHT22;7268;50.792;0.252;2023-05-13T09:43:14;26.60;45.10
14370;DHT22;7268;50.792;0.252;2023-05-13T09:45:41;26.40;45.70
14370;DHT22;7268;50.792;0.252;2023-05-13T09:48:08;25.50;47.50
14370;DHT22;7268;50.792;0.252;2023-05-13T09:50:48;25.40;46.50
14370;DHT22;7268;50.792;0.252;2023-05-13T09:53:15;25.90;46.10
14370;DHT22;7268;50.792;0.252;2023-05-13T09:55:50;26.20;45.10
14370;DHT22;7268;50.792;0.252;2023-05-13T09:58:18;27.10;45.00
14370;DHT22;7268;50.792;0.252;2023-05-13T10:00:46;25.90;44.90
14370;DHT22;7268;50.792;0.252;2023-05-13T10:03:14;25.70;46.20
14370;DHT22;7268;50.792;0.252;2023-05-13T10:05:42;26.20;45.70
14370;DHT22;7268;50.792;0.252;2023-05-13T10:08:10;26.50;46.40
14370;DHT22;7268;50.792;0.252;2023-05-13T10:10:40;27.00;45.00
14370;DHT22;7268;50.792;0.252;2023-05-13T10:13:09;26.50;45.10
14370;DHT22;7268;50.792;0.252;2023-05-13T10:15:47;26.00;45.80
14370;DHT22;7268;50.792;0.252;2023-05-13T10:18:16;26.50;48.00
14370;DHT22;7268;50.792;0.252;2023-05-13T10:20:44;25.50;46.70
14370;DHT22;7268;50.792;0.252;2023-05-13T10:23:12;25.10;47.20
14370;DHT22;7268;50.792;0.252;2023-05-13T10:25:38;25.90;48.10
14370;DHT22;7268;50.792;0.252;2023-05-13T10:28:05;26.20;48.00
14370;DHT22;7268;50.792;0.252;2023-05-13T10:30:32;26.40;45.80
14370;DHT22;7268;50.792;0.252;2023-05-13T10:33:02;26.90;45.40
14370;DHT22;7268;50.792;0.252;2023-05-13T10:35:32;26.20;47.20
14370;DHT22;7268;50.792;0.252;2023-05-13T10:38:30;26.10;47.20
14370;DHT22;7268;50.792;0.252;2023-05-13T10:41:10;26.00;48.10
14370;DHT22;7268;50.792;0.252;2023-05-13T10:43:39;26.90;45.50
14370;DHT22;7268;50.792;0.252;2023-05-13T10:46:07;27.40;43.50
14370;DHT22;7268;50.792;0.252;2023-05-13T10:48:57;26.90;44.40
14370;DHT22;7268;50.792;0.252;2023-05-13T10:51:25;26.50;44.30
14370;DHT22;7268;50.792;0.252;2023-05-13T10:53:54;26.50;44.80
14370;DHT22;7268;50.792;0.252;2023-05-13T10:56:23;26.80;45.10
14370;DHT22;7268;50.792;0.252;2023-05-13T11:01:31;27.50;47.30
14370;DHT22;7268;50.792;0.252;2023-05-13T11:04:01;27.00;45.50
14370;DHT22;7268;50.792;0.252;2023-05-13T11:06:36;26.50;45.10
14370;DHT22;7268;50.792;0.252;2023-05-13T11:11:58;26.80;45.60
14370;DHT22;7268;50.792;0.252;2023-05-13T11:14:26;26.40;45.80
14370;DHT22;7268;50.792;0.252;2023-05-13T11:19:35;27.10;44.20
14370;DHT22;7268;50.792;0.252;2023-05-13T11:22:12;26.70;44.70
14370;DHT22;7268;50.792;0.252;2023-05-13T11:24:40;27.10;43.60
14370;DHT22;7268;50.792;0.252;2023-05-13T11:27:20;27.50;43.80
14370;DHT22;7268;50.792;0.252;2023-05-13T11:29:51;27.70;43.20
14370;DHT22;7268;50.792;0.252;2023-05-13T11:35:24;26.70;44.60
14370;DHT22;7268;50.792;0.252;2023-05-13T11:37:52;26.80;47.80
14370;DHT22;7268;50.792;0.252;2023-05-13T11:40:22;27.10;46.10
14370;DHT22;7268;50.792;0.252;2023-05-13T11:42:49;26.40;48.30
14370;DHT22;7268;50.792;0.252;2023-05-13T11:45:20;26.50;46.30
14370;DHT22;7268;50.792;0.252;2023-05-13T11:47:49;25.60;45.90
14370;DHT22;7268;50.792;0.252;2023-05-13T11:50:23;24.10;48.60
14370;DHT22;7268;50.792;0.252;2023-05-13T11:52:51;24.40;49.30
14370;DHT22;7268;50.792;0.252;2023-05-13T11:55:31;24.50;49.40
14370;DHT22;7268;50.792;0.252;2023-05-13T11:58:00;25.30;49.80
14370;DHT22;7268;50.792;0.252;2023-05-13T12:00:32;25.40;47.70
14370;DHT22;7268;50.792;0.252;2023-05-13T12:03:09;25.10;48.30
14370;DHT22;7268;50.792;0.252;2023-05-13T12:05:39;26.30;47.80
14370;DHT22;7268;50.792;0.252;2023-05-13T12:08:09;26.40;46.70
14370;DHT22;7268;50.792;0.252;2023-05-13T12:10:42;26.80;46.40
14370;DHT22;7268;50.792;0.252;2023-05-13T12:13:14;25.90;46.30
14370;DHT22;7268;50.792;0.252;2023-05-13T12:15:41;25.40;48.90
14370;DHT22;7268;50.792;0.252;2023-05-13T12:18:08;26.10;48.80
14370;DHT22;7268;50.792;0.252;2023-05-13T12:20:35;26.50;48.00
14370;DHT22;7268;50.792;0.252;2023-05-13T12:23:03;26.20;47.90
14370;DHT22;7268;50.792;0.252;2023-05-13T12:28:24;24.90;49.10
14370;DHT22;7268;50.792;0.252;2023-05-13T12:30:52;25.20;49.30
14370;DHT22;7268;50.792;0.252;2023-05-13T12:33:21;24.80;49.60
14370;DHT22;7268;50.792;0.252;2023-05-13T12:35:51;23.90;51.40
14370;DHT22;7268;50.792;0.252;2023-05-13T12:38:20;24.00;52.30
14370;DHT22;7268;50.792;0.252;2023-05-13T12:40:48;23.80;51.80
14370;DHT22;7268;50.792;0.252;2023-05-13T12:43:16;23.60;51.00
14370;DHT22;7268;50.792;0.252;2023-05-13T12:45:46;23.40;52.30
14370;DHT22;7268;50.792;0.252;2023-05-13T12:48:13;23.40;52.70
14370;DHT22;7268;50.792;0.252;2023-05-13T12:50:40;24.00;53.30
14370;DHT22;7268;50.792;0.252;2023-05-13T12:53:07;24.40;52.70
14370;DHT22;7268;50.792;0.252;2023-05-13T12:55:36;24.30;53.60
14370;DHT22;7268;50.792;0.252;2023-05-13T12:58:07;24.40;52.70
14370;DHT22;7268;50.792;0.252;2023-05-13T13:00:36;24.50;52.50
14370;DHT22;7268;50.792;0.252;2023-05-13T13:03:03;24.30;53.50
14370;DHT22;7268;50.792;0.252;2023-05-13T13:05:31;24.60;55.10
14370;DHT22;7268;50.792;0.252;2023-05-13T13:07:58;24.10;52.50
14370;DHT22;7268;50.792;0.252;2023-05-13T13:10:27;23.10;53.30
14370;DHT22;7268;50.792;0.252;2023-05-13T13:12:54;22.00;55.30
14370;DHT22;7268;50.792;0.252;2023-05-13T13:15:21;21.90;56.90
14370;DHT22;7268;50.792;0.252;2023-05-13T13:17:50;21.90;56.20
14370;DHT22;7268;50.792;0.252;2023-05-13T13:20:17;21.90;57.00
14370;DHT22;7268;50.792;0.252;2023-05-13T13:22:46;21.20;58.20
14370;DHT22;7268;50.792;0.252;2023-05-13T13:25:13;20.80;59.10
14370;DHT22;7268;50.792;0.252;2023-05-13T13:27:40;20.50;60.50
14370;DHT22;7268;50.792;0.252;2023-05-13T13:30:07;20.60;61.30
14370;DHT22;7268;50.792;0.252;2023-05-13T13:32:35;20.70;59.80
14370;DHT22;7268;50.792;0.252;2023-05-13T13:35:02;20.90;60.10
14370;DHT22;7268;50.792;0.252;2023-05-13T13:37:31;21.00;61.90
14370;DHT22;7268;50.792;0.252;2023-05-13T13:39:58;21.20;61.50
14370;DHT22;7268;50.792;0.252;2023-05-13T13:42:26;21.40;62.50
14370;DHT22;7268;50.792;0.252;2023-05-13T13:45:09;21.50;60.30
14370;DHT22;7268;50.792;0.252;2023-05-13T13:47:36;21.50;60.00
14370;DHT22;7268;50.792;0.252;2023-05-13T13:50:04;21.30;61.30
14370;DHT22;7268;50.792;0.252;2023-05-13T13:52:31;21.20;58.80
14370;DHT22;7268;50.792;0.252;2023-05-13T13:54:59;21.00;61.00
14370;DHT22;7268;50.792;0.252;2023-05-13T13:57:26;21.00;58.80
14370;DHT22;7268;50.792;0.252;2023-05-13T13:59:53;20.40;59.60
14370;DHT22;7268;50.792;0.252;2023-05-13T14:02:20;20.20;61.80
14370;DHT22;7268;50.792;0.252;2023-05-13T14:04:47;20.50;62.20
14370;DHT22;7268;50.792;0.252;2023-05-13T14:07:14;21.10;64.10
14370;DHT22;7268;50.792;0.252;2023-05-13T14:09:41;21.30;60.70
14370;DHT22;7268;50.792;0.252;2023-05-13T14:12:08;21.30;61.50
14370;DHT22;7268;50.792;0.252;2023-05-13T14:14:35;21.10;62.30
14370;DHT22;7268;50.792;0.252;2023-05-13T14:17:02;21.10;62.30
14370;DHT22;7268;50.792;0.252;2023-05-13T14:19:29;21.10;59.70
14370;DHT22;7268;50.792;0.252;2023-05-13T14:21:55;20.80;59.10
14370;DHT22;7268;50.792;0.252;2023-05-13T14:24:23;20.70;61.10
14370;DHT22;7268;50.792;0.252;2023-05-13T14:26:50;20.80;61.00
14370;DHT22;7268;50.792;0.252;2023-05-13T14:29:16;21.00;60.10
14370;DHT22;7268;50.792;0.252;2023-05-13T14:31:43;20.90;59.40
14370;DHT22;7268;50.792;0.252;2023-05-13T14:34:10;20.50;61.80
14370;DHT22;7268;50.792;0.252;2023-05-13T14:36:37;20.30;64.20
14370;DHT22;7268;50.792;0.252;2023-05-13T14:39:04;20.40;63.40
14370;DHT22;7268;50.792;0.252;2023-05-13T14:41:31;20.40;62.20
14370;DHT22;7268;50.792;0.252;2023-05-13T14:44:05;20.20;62.60
14370;DHT22;7268;50.792;0.252;2023-05-13T14:46:32;20.10;63.20
14370;DHT22;7268;50.792;0.252;2023-05-13T14:49:02;20.00;62.30
14370;DHT22;7268;50.792;0.252;2023-05-13T14:51:29;20.20;64.20
14370;DHT22;7268;50.792;0.252;2023-05-13T14:53:57;20.30;64.00
14370;DHT22;7268;50.792;0.252;2023-05-13T14:56:24;20.20;61.40
14370;DHT22;7268;50.792;0.252;2023-05-13T14:58:52;20.00;62.40
14370;DHT22;7268;50.792;0.252;2023-05-13T15:01:24;20.00;61.90
14370;DHT22;7268;50.792;0.252;2023-05-13T15:03:51;20.10;60.90
14370;DHT22;7268;50.792;0.252;2023-05-13T15:06:18;20.20;61.20
14370;DHT22;7268;50.792;0.252;2023-05-13T15:08:46;20.20;62.20
14370;DHT22;7268;50.792;0.252;2023-05-13T15:11:13;20.20;61.00
14370;DHT22;7268;50.792;0.252;2023-05-13T15:13:41;20.00;63.60
14370;DHT22;7268;50.792;0.252;2023-05-13T15:16:08;19.90;63.90
14370;DHT22;7268;50.792;0.252;2023-05-13T15:18:36;19.90;63.70
14370;DHT22;7268;50.792;0.252;2023-05-13T15:21:03;19.70;64.70
14370;DHT22;7268;50.792;0.252;2023-05-13T15:23:30;19.70;64.10
14370;DHT22;7268;50.792;0.252;2023-05-13T15:25:57;19.80;63.00
14370;DHT22;7268;50.792;0.252;2023-05-13T15:28:24;19.70;62.30
14370;DHT22;7268;50.792;0.252;2023-05-13T15:30:51;19.60;63.90
14370;DHT22;7268;50.792;0.252;2023-05-13T15:33:18;19.60;63.90
14370;DHT22;7268;50.792;0.252;2023-05-13T15:35:45;19.70;64.30
14370;DHT22;7268;50.792;0.252;2023-05-13T15:38:12;19.60;64.30
14370;DHT22;7268;50.792;0.252;2023-05-13T15:40:40;19.70;64.40
14370;DHT22;7268;50.792;0.252;2023-05-13T15:43:07;19.90;64.50
14370;DHT22;7268;50.792;0.252;2023-05-13T15:45:36;19.80;63.20
14370;DHT22;7268;50.792;0.252;2023-05-13T15:48:03;19.60;63.60
14370;DHT22;7268;50.792;0.252;2023-05-13T15:50:30;19.80;66.70
14370;DHT22;7268;50.792;0.252;2023-05-13T15:52:57;19.80;64.20
14370;DHT22;7268;50.792;0.252;2023-05-13T15:55:24;19.60;62.10
14370;DHT22;7268;50.792;0.252;2023-05-13T15:57:51;19.70;63.20
14370;DHT22;7268;50.792;0.252;2023-05-13T16:00:21;19.70;64.00
14370;DHT22;7268;50.792;0.252;2023-05-13T16:02:48;19.50;64.10
14370;DHT22;7268;50.792;0.252;2023-05-13T16:05:15;19.50;64.30
14370;DHT22;7268;50.792;0.252;2023-05-13T16:07:44;19.60;65.70
14370;DHT22;7268;50.792;0.252;2023-05-13T16:10:11;19.60;65.20
14370;DHT22;7268;50.792;0.252;2023-05-13T16:12:38;19.60;65.30
14370;DHT22;7268;50.792;0.252;2023-05-13T16:15:06;19.40;65.90